Flight Track Log - Related Links

Times and Time Zones

All times are in EDT time to prevent confusion due to time zone crossing. See the CPT8773 flight status page for this flight to view local times or setup timezone preferences in your user account.

Time Position Orientation Groundspeed Altitude Reporting Facility
EDT Latitude Longitude Course Direction KTS MPH feet Rate Location/Type
Tue 09:17:07 AM 42.9708 -106.5231 308° West 107 123 10,000  Level Denver Center
Tue 09:18:08 AM 42.9983 -106.5339 344° North 107 123 10,900 787 Climbing Denver Center
Tue 09:19:09 AM 43.0267 -106.5461 342° North 109 125 11,600 590 Climbing Denver Center
Tue 09:20:00 AM 43.0680 -106.2820 36° Northeast  Level FlightAware Approximate
Tue 09:20:10 AM 43.0650 -106.5628 342° North 128 147 12,100  Level Denver Center
Tue 09:21:00 AM 43.0973 -106.2911 308° West  Level FlightAware Approximate
Tue 09:21:11 AM 43.1036 -106.5786 343° North 146 168 12,000  Level Denver Center
Tue 09:22:00 AM 43.1230 -106.3360 308° West  Level FlightAware Approximate
Tue 09:22:12 AM 43.1433 -106.5964 342° North 155 178 12,000  Level Denver Center
Tue 09:23:13 AM 43.1903 -106.6147 344° North 157 181 12,000  Level Denver Center
Tue 09:24:14 AM 43.2292 -106.6322 342° North 155 178 12,000  Level Denver Center
Tue 09:25:15 AM 43.2706 -106.6472 345° North 158 182 12,000  Level Denver Center
Tue 09:26:16 AM 43.3103 -106.6847 326° Northwest 158 182 12,000  Level Denver Center
Tue 09:27:17 AM 43.3319 -106.7350 301° West 158 182 12,000  Level Denver Center
Tue 09:28:18 AM 43.3561 -106.7811 306° West 156 180 12,000  Level Denver Center
Tue 09:29:19 AM 43.3850 -106.8339 307° West 155 178 12,000 49 Level Denver Center
Tue 09:30:20 AM 43.4056 -106.8797 302° West 155 178 12,100  Climbing Denver Center
Tue 09:31:21 AM 43.4303 -106.9258 306° West 156 180 12,000 -49 Descending Denver Center
Tue 09:32:22 AM 43.4600 -106.9786 308° West 157 181 12,000  Level Denver Center
Tue 09:33:23 AM 43.4828 -107.0264 303° West 155 178 12,000  Level Denver Center
Tue 09:34:24 AM 43.5119 -107.0800 307° West 156 180 12,000  Level Denver Center
Tue 09:35:25 AM 43.5369 -107.1253 307° West 156 180 12,000  Level Denver Center
Tue 09:36:29 AM 43.5625 -107.1828 302° West 156 180 12,000  Level Salt Lake Center
Tue 09:37:31 AM 43.5861 -107.2292 305° West 154 177 12,000  Level Salt Lake Center
Tue 09:38:32 AM 43.6136 -107.2828 305° West 153 176 12,000  Level Salt Lake Center
Tue 09:39:33 AM 43.6367 -107.3289 305° West 153 176 12,000 -49 Level Salt Lake Center
Tue 09:40:34 AM 43.6614 -107.3742 307° West 153 176 11,900  Descending Salt Lake Center
Tue 09:41:35 AM 43.6911 -107.4261 308° West 154 177 12,000 49 Climbing Salt Lake Center
Tue 09:42:37 AM 43.7139 -107.4722 304° West 153 176 12,000  Level Salt Lake Center
Tue 09:43:38 AM 43.7422 -107.5250 307° West 153 176 12,000  Level Salt Lake Center
Tue 09:44:39 AM 43.7667 -107.5692 307° West 152 175 12,000  Level Salt Lake Center
Tue 09:45:40 AM 43.7894 -107.6150 305° West 151 174 12,000  Level Salt Lake Center
Tue 09:46:42 AM 43.8169 -107.6667 306° West 150 173 12,000  Level Salt Lake Center
Tue 09:47:43 AM 43.8408 -107.7106 307° West 150 173 12,000 -49 Level Salt Lake Center
Tue 09:48:44 AM 43.8642 -107.7533 307° West 147 169 11,900  Descending Salt Lake Center
Tue 09:49:46 AM 43.8911 -107.8053 306° West 147 169 12,000 49 Climbing Salt Lake Center
Tue 09:50:47 AM 43.9139 -107.8494 306° West 147 169 12,000  Level Salt Lake Center
Tue 09:51:48 AM 43.9397 -107.8994 306° West 145 167 12,000  Level Salt Lake Center
Tue 09:52:49 AM 43.9633 -107.9444 306° West 147 169 12,000 -49 Level Salt Lake Center
Tue 09:53:51 AM 43.9867 -107.9886 306° West 148 170 11,900  Descending Salt Lake Center
Tue 09:54:52 AM 44.0136 -108.0403 306° West 148 170 12,000  Climbing Salt Lake Center
Tue 09:55:53 AM 44.0367 -108.0861 305° West 149 171 11,900 -49 Descending Salt Lake Center
Tue 09:56:55 AM 44.0606 -108.1322 306° West 150 173 11,900  Level Salt Lake Center
Tue 09:57:56 AM 44.0886 -108.1850 307° West 151 174 11,900  Level Salt Lake Center
Tue 09:58:57 AM 44.1114 -108.2294 306° West 150 173 11,900 -49 Level Salt Lake Center
Tue 09:59:59 AM 44.1397 -108.2828 307° West 151 174 11,800 -146 Descending Salt Lake Center
Tue 10:01:00 AM 44.1642 -108.3289 306° West 153 176 11,600 -146 Descending Salt Lake Center
Tue 10:02:02 AM 44.1886 -108.3758 306° West 154 177 11,500 -146 Descending Salt Lake Center
Tue 10:03:03 AM 44.2164 -108.4306 305° West 155 178 11,300 -98 Descending Salt Lake Center
Tue 10:04:04 AM 44.2406 -108.4767 306° West 154 177 11,300 -98 Level Salt Lake Center
Tue 10:05:06 AM 44.2689 -108.5300 307° West 153 176 11,100 -146 Descending Salt Lake Center
Tue 10:06:07 AM 44.2919 -108.5764 305° West 153 176 11,000 -341 Descending Salt Lake Center
Tue 10:07:09 AM 44.3169 -108.6239 306° West 154 177 10,400 -488 Descending Salt Lake Center
Tue 10:08:10 AM 44.3478 -108.6817 307° West 160 184 10,000 -393 Descending Salt Lake Center

Login

Don't have an account? Register now (free) for customized features, flight alerts, and more!